sensor_id;sensor_type;location;lat;lon;timestamp;temperature;humidity
12885;DHT22;6510;51.362;7.370;2023-12-07T00:01:06;1.50;99.90
12885;DHT22;6510;51.362;7.370;2023-12-07T00:03:31;1.50;99.90
12885;DHT22;6510;51.362;7.370;2023-12-07T00:05:57;1.50;99.90
12885;DHT22;6510;51.362;7.370;2023-12-07T00:08:23;1.40;99.90
12885;DHT22;6510;51.362;7.370;2023-12-07T00:10:48;1.40;99.90
12885;DHT22;6510;51.362;7.370;2023-12-07T00:13:14;1.40;99.90
12885;DHT22;6510;51.362;7.370;2023-12-07T00:15:40;1.30;99.90
12885;DHT22;6510;51.362;7.370;2023-12-07T00:18:05;1.30;99.90
12885;DHT22;6510;51.362;7.370;2023-12-07T00:20:31;1.30;99.90
12885;DHT22;6510;51.362;7.370;2023-12-07T00:22:57;1.30;99.90
12885;DHT22;6510;51.362;7.370;2023-12-07T00:25:22;1.30;99.90
12885;DHT22;6510;51.362;7.370;2023-12-07T00:27:49;1.40;99.90
12885;DHT22;6510;51.362;7.370;2023-12-07T00:30:15;1.30;99.90
12885;DHT22;6510;51.362;7.370;2023-12-07T00:32:40;1.30;99.90
12885;DHT22;6510;51.362;7.370;2023-12-07T00:35:10;1.30;99.90
12885;DHT22;6510;51.362;7.370;2023-12-07T00:37:36;1.40;99.90
12885;DHT22;6510;51.362;7.370;2023-12-07T00:40:02;1.40;99.90
12885;DHT22;6510;51.362;7.370;2023-12-07T00:42:28;1.30;99.90
12885;DHT22;6510;51.362;7.370;2023-12-07T00:44:54;1.20;99.90
12885;DHT22;6510;51.362;7.370;2023-12-07T00:47:20;1.20;99.90
12885;DHT22;6510;51.362;7.370;2023-12-07T00:49:46;1.00;99.90
12885;DHT22;6510;51.362;7.370;2023-12-07T00:52:12;1.00;99.90
12885;DHT22;6510;51.362;7.370;2023-12-07T00:54:38;1.00;99.90
12885;DHT22;6510;51.362;7.370;2023-12-07T00:57:05;0.90;99.90
12885;DHT22;6510;51.362;7.370;2023-12-07T00:59:30;1.00;99.90
12885;DHT22;6510;51.362;7.370;2023-12-07T01:02:00;1.00;99.90
12885;DHT22;6510;51.362;7.370;2023-12-07T01:04:27;1.00;99.90
12885;DHT22;6510;51.362;7.370;2023-12-07T01:06:53;1.00;99.90
12885;DHT22;6510;51.362;7.370;2023-12-07T01:09:18;1.00;99.90
12885;DHT22;6510;51.362;7.370;2023-12-07T01:11:44;1.10;99.90
12885;DHT22;6510;51.362;7.370;2023-12-07T01:14:10;1.10;99.90
12885;DHT22;6510;51.362;7.370;2023-12-07T01:16:36;1.10;99.90
12885;DHT22;6510;51.362;7.370;2023-12-07T01:19:02;1.20;99.90
12885;DHT22;6510;51.362;7.370;2023-12-07T01:21:28;1.20;99.90
12885;DHT22;6510;51.362;7.370;2023-12-07T01:23:53;1.20;99.90
12885;DHT22;6510;51.362;7.370;2023-12-07T01:26:19;1.30;99.90
12885;DHT22;6510;51.362;7.370;2023-12-07T01:28:45;1.30;99.90
12885;DHT22;6510;51.362;7.370;2023-12-07T01:31:10;1.30;99.90
12885;DHT22;6510;51.362;7.370;2023-12-07T01:33:36;1.30;99.90
12885;DHT22;6510;51.362;7.370;2023-12-07T01:36:01;1.40;99.90
12885;DHT22;6510;51.362;7.370;2023-12-07T01:38:27;1.30;99.90
12885;DHT22;6510;51.362;7.370;2023-12-07T01:40:52;1.30;99.90
12885;DHT22;6510;51.362;7.370;2023-12-07T01:43:22;1.30;99.90
12885;DHT22;6510;51.362;7.370;2023-12-07T01:45:49;1.30;99.90
12885;DHT22;6510;51.362;7.370;2023-12-07T01:48:19;1.20;99.90
12885;DHT22;6510;51.362;7.370;2023-12-07T01:50:46;1.20;99.90
12885;DHT22;6510;51.362;7.370;2023-12-07T01:53:12;1.20;99.90
12885;DHT22;6510;51.362;7.370;2023-12-07T01:55:38;1.20;99.90
12885;DHT22;6510;51.362;7.370;2023-12-07T01:58:06;1.30;99.90
12885;DHT22;6510;51.362;7.370;2023-12-07T02:00:33;1.30;99.90
12885;DHT22;6510;51.362;7.370;2023-12-07T02:03:00;1.30;99.90
12885;DHT22;6510;51.362;7.370;2023-12-07T02:05:26;1.30;99.90
12885;DHT22;6510;51.362;7.370;2023-12-07T02:07:52;1.30;99.90
12885;DHT22;6510;51.362;7.370;2023-12-07T02:10:18;1.40;99.90
12885;DHT22;6510;51.362;7.370;2023-12-07T02:12:44;1.30;99.90
12885;DHT22;6510;51.362;7.370;2023-12-07T02:15:10;1.30;99.90
12885;DHT22;6510;51.362;7.370;2023-12-07T02:20:39;1.30;99.90
12885;DHT22;6510;51.362;7.370;2023-12-07T02:23:08;1.20;99.90
12885;DHT22;6510;51.362;7.370;2023-12-07T02:25:53;1.20;99.90
12885;DHT22;6510;51.362;7.370;2023-12-07T02:28:19;1.30;99.90
12885;DHT22;6510;51.362;7.370;2023-12-07T02:30:45;1.20;99.90
12885;DHT22;6510;51.362;7.370;2023-12-07T02:33:11;1.20;99.90
12885;DHT22;6510;51.362;7.370;2023-12-07T02:35:38;1.20;99.90
12885;DHT22;6510;51.362;7.370;2023-12-07T02:38:05;1.20;99.90
12885;DHT22;6510;51.362;7.370;2023-12-07T02:40:31;1.20;99.90
12885;DHT22;6510;51.362;7.370;2023-12-07T02:42:58;1.20;99.90
12885;DHT22;6510;51.362;7.370;2023-12-07T02:45:24;1.10;99.90
12885;DHT22;6510;51.362;7.370;2023-12-07T02:47:51;1.00;99.90
12885;DHT22;6510;51.362;7.370;2023-12-07T02:50:16;0.80;99.90
12885;DHT22;6510;51.362;7.370;2023-12-07T02:52:42;0.80;99.90
12885;DHT22;6510;51.362;7.370;2023-12-07T02:55:08;0.80;99.90
12885;DHT22;6510;51.362;7.370;2023-12-07T02:57:34;0.80;99.90
12885;DHT22;6510;51.362;7.370;2023-12-07T03:00:00;0.70;99.90
12885;DHT22;6510;51.362;7.370;2023-12-07T03:02:26;0.70;99.90
12885;DHT22;6510;51.362;7.370;2023-12-07T03:04:52;0.60;99.90
12885;DHT22;6510;51.362;7.370;2023-12-07T03:07:18;0.60;99.90
12885;DHT22;6510;51.362;7.370;2023-12-07T03:09:43;0.50;99.90
12885;DHT22;6510;51.362;7.370;2023-12-07T03:12:09;0.50;99.90
12885;DHT22;6510;51.362;7.370;2023-12-07T03:14:35;0.50;99.90
12885;DHT22;6510;51.362;7.370;2023-12-07T03:17:00;0.60;99.90
12885;DHT22;6510;51.362;7.370;2023-12-07T03:19:26;0.50;99.90
12885;DHT22;6510;51.362;7.370;2023-12-07T03:21:51;0.40;99.90
12885;DHT22;6510;51.362;7.370;2023-12-07T03:24:17;0.40;99.90
12885;DHT22;6510;51.362;7.370;2023-12-07T03:26:43;0.50;99.90
12885;DHT22;6510;51.362;7.370;2023-12-07T03:29:09;0.40;99.90
12885;DHT22;6510;51.362;7.370;2023-12-07T03:31:34;0.40;99.90
12885;DHT22;6510;51.362;7.370;2023-12-07T03:34:00;0.50;99.90
12885;DHT22;6510;51.362;7.370;2023-12-07T03:36:27;0.50;99.90
12885;DHT22;6510;51.362;7.370;2023-12-07T03:38:52;0.60;99.90
12885;DHT22;6510;51.362;7.370;2023-12-07T03:41:18;0.60;99.90
12885;DHT22;6510;51.362;7.370;2023-12-07T03:43:44;0.60;99.90
12885;DHT22;6510;51.362;7.370;2023-12-07T03:46:10;0.60;99.90
12885;DHT22;6510;51.362;7.370;2023-12-07T03:48:36;0.70;99.90
12885;DHT22;6510;51.362;7.370;2023-12-07T03:51:02;0.70;99.90
12885;DHT22;6510;51.362;7.370;2023-12-07T03:53:28;0.80;99.90
12885;DHT22;6510;51.362;7.370;2023-12-07T03:55:54;0.90;99.90
12885;DHT22;6510;51.362;7.370;2023-12-07T03:58:19;1.00;99.90
12885;DHT22;6510;51.362;7.370;2023-12-07T04:00:45;1.00;99.90
12885;DHT22;6510;51.362;7.370;2023-12-07T04:03:11;1.00;99.90
12885;DHT22;6510;51.362;7.370;2023-12-07T04:05:37;1.00;99.90
12885;DHT22;6510;51.362;7.370;2023-12-07T04:08:03;1.00;99.90
12885;DHT22;6510;51.362;7.370;2023-12-07T04:10:30;1.00;99.90
12885;DHT22;6510;51.362;7.370;2023-12-07T04:12:56;1.10;99.90
12885;DHT22;6510;51.362;7.370;2023-12-07T04:15:22;1.10;99.90
12885;DHT22;6510;51.362;7.370;2023-12-07T04:17:48;1.10;99.90
12885;DHT22;6510;51.362;7.370;2023-12-07T04:20:14;1.20;99.90
12885;DHT22;6510;51.362;7.370;2023-12-07T04:22:40;1.20;99.90
12885;DHT22;6510;51.362;7.370;2023-12-07T04:25:06;1.20;99.90
12885;DHT22;6510;51.362;7.370;2023-12-07T04:27:33;1.20;99.90
12885;DHT22;6510;51.362;7.370;2023-12-07T04:29:59;1.20;99.90
12885;DHT22;6510;51.362;7.370;2023-12-07T04:32:25;1.20;99.90
12885;DHT22;6510;51.362;7.370;2023-12-07T04:34:51;1.20;99.90
12885;DHT22;6510;51.362;7.370;2023-12-07T04:37:17;1.20;99.90
12885;DHT22;6510;51.362;7.370;2023-12-07T04:39:42;1.30;99.90
12885;DHT22;6510;51.362;7.370;2023-12-07T04:42:08;1.30;99.90
12885;DHT22;6510;51.362;7.370;2023-12-07T04:44:35;1.20;99.90
12885;DHT22;6510;51.362;7.370;2023-12-07T04:47:00;1.30;99.90
12885;DHT22;6510;51.362;7.370;2023-12-07T04:49:26;1.20;99.90
12885;DHT22;6510;51.362;7.370;2023-12-07T04:51:52;1.20;99.90
12885;DHT22;6510;51.362;7.370;2023-12-07T04:54:18;1.20;99.90
12885;DHT22;6510;51.362;7.370;2023-12-07T04:56:44;1.20;99.90
12885;DHT22;6510;51.362;7.370;2023-12-07T04:59:10;1.10;99.90
12885;DHT22;6510;51.362;7.370;2023-12-07T05:01:36;1.20;99.90
12885;DHT22;6510;51.362;7.370;2023-12-07T05:04:05;1.20;99.90
12885;DHT22;6510;51.362;7.370;2023-12-07T05:06:31;1.10;99.90
12885;DHT22;6510;51.362;7.370;2023-12-07T05:08:57;1.10;99.90
12885;DHT22;6510;51.362;7.370;2023-12-07T05:11:23;1.10;99.90
12885;DHT22;6510;51.362;7.370;2023-12-07T05:13:49;1.10;99.90
12885;DHT22;6510;51.362;7.370;2023-12-07T05:16:15;1.10;99.90
12885;DHT22;6510;51.362;7.370;2023-12-07T05:18:41;1.00;99.90
12885;DHT22;6510;51.362;7.370;2023-12-07T05:21:07;1.00;99.90
12885;DHT22;6510;51.362;7.370;2023-12-07T05:23:33;1.00;99.90
12885;DHT22;6510;51.362;7.370;2023-12-07T05:25:59;1.00;99.90
12885;DHT22;6510;51.362;7.370;2023-12-07T05:28:28;1.00;99.90
12885;DHT22;6510;51.362;7.370;2023-12-07T05:30:56;1.10;99.90
12885;DHT22;6510;51.362;7.370;2023-12-07T05:33:22;1.20;99.90
12885;DHT22;6510;51.362;7.370;2023-12-07T05:35:48;1.20;99.90
12885;DHT22;6510;51.362;7.370;2023-12-07T05:38:13;1.20;99.90
12885;DHT22;6510;51.362;7.370;2023-12-07T05:40:39;1.20;99.90
12885;DHT22;6510;51.362;7.370;2023-12-07T05:43:05;1.20;99.90
12885;DHT22;6510;51.362;7.370;2023-12-07T05:45:33;1.20;99.90
12885;DHT22;6510;51.362;7.370;2023-12-07T05:47:59;1.10;99.90
12885;DHT22;6510;51.362;7.370;2023-12-07T05:50:25;1.00;99.90
12885;DHT22;6510;51.362;7.370;2023-12-07T05:52:50;1.00;99.90
12885;DHT22;6510;51.362;7.370;2023-12-07T05:55:16;0.90;99.90
12885;DHT22;6510;51.362;7.370;2023-12-07T05:57:45;0.90;99.90
12885;DHT22;6510;51.362;7.370;2023-12-07T06:00:12;0.90;99.90
12885;DHT22;6510;51.362;7.370;2023-12-07T06:02:38;0.80;99.90
12885;DHT22;6510;51.362;7.370;2023-12-07T06:05:11;0.80;99.90
12885;DHT22;6510;51.362;7.370;2023-12-07T06:07:37;0.80;99.90
12885;DHT22;6510;51.362;7.370;2023-12-07T06:10:03;0.70;99.90
12885;DHT22;6510;51.362;7.370;2023-12-07T06:12:30;0.70;99.90
12885;DHT22;6510;51.362;7.370;2023-12-07T06:14:56;0.70;99.90
12885;DHT22;6510;51.362;7.370;2023-12-07T06:17:22;0.70;99.90
12885;DHT22;6510;51.362;7.370;2023-12-07T06:19:50;0.70;99.90
12885;DHT22;6510;51.362;7.370;2023-12-07T06:22:16;0.60;99.90
12885;DHT22;6510;51.362;7.370;2023-12-07T06:24:45;0.60;99.90
12885;DHT22;6510;51.362;7.370;2023-12-07T06:27:10;0.50;99.90
12885;DHT22;6510;51.362;7.370;2023-12-07T06:29:36;0.50;99.90
12885;DHT22;6510;51.362;7.370;2023-12-07T06:32:02;0.50;99.90
12885;DHT22;6510;51.362;7.370;2023-12-07T06:34:29;0.50;99.90
12885;DHT22;6510;51.362;7.370;2023-12-07T06:36:54;0.50;99.90
12885;DHT22;6510;51.362;7.370;2023-12-07T06:39:20;0.50;99.90
12885;DHT22;6510;51.362;7.370;2023-12-07T06:41:46;0.50;99.90
12885;DHT22;6510;51.362;7.370;2023-12-07T06:44:11;0.50;99.90
12885;DHT22;6510;51.362;7.370;2023-12-07T06:46:37;0.50;99.90
12885;DHT22;6510;51.362;7.370;2023-12-07T06:49:03;0.40;99.90
12885;DHT22;6510;51.362;7.370;2023-12-07T06:51:29;0.50;99.90
12885;DHT22;6510;51.362;7.370;2023-12-07T06:53:55;0.40;99.90
12885;DHT22;6510;51.362;7.370;2023-12-07T06:56:20;0.50;99.90
12885;DHT22;6510;51.362;7.370;2023-12-07T06:58:46;0.50;99.90
12885;DHT22;6510;51.362;7.370;2023-12-07T07:01:13;0.60;99.90
12885;DHT22;6510;51.362;7.370;2023-12-07T07:03:38;0.50;99.90
12885;DHT22;6510;51.362;7.370;2023-12-07T07:06:04;0.50;99.90
12885;DHT22;6510;51.362;7.370;2023-12-07T07:08:30;0.60;99.90
12885;DHT22;6510;51.362;7.370;2023-12-07T07:10:58;0.50;99.90
12885;DHT22;6510;51.362;7.370;2023-12-07T07:13:24;0.50;99.90
12885;DHT22;6510;51.362;7.370;2023-12-07T07:16:07;0.60;99.90
12885;DHT22;6510;51.362;7.370;2023-12-07T07:18:33;0.80;99.90
12885;DHT22;6510;51.362;7.370;2023-12-07T07:20:59;0.80;99.90
12885;DHT22;6510;51.362;7.370;2023-12-07T07:23:27;0.80;99.90
12885;DHT22;6510;51.362;7.370;2023-12-07T07:25:53;0.80;99.90
12885;DHT22;6510;51.362;7.370;2023-12-07T07:28:19;0.70;99.90
12885;DHT22;6510;51.362;7.370;2023-12-07T07:30:45;0.70;99.90
12885;DHT22;6510;51.362;7.370;2023-12-07T07:33:21;0.80;99.90
12885;DHT22;6510;51.362;7.370;2023-12-07T07:35:47;0.80;99.90
12885;DHT22;6510;51.362;7.370;2023-12-07T07:38:15;0.80;99.90
12885;DHT22;6510;51.362;7.370;2023-12-07T07:40:46;0.90;99.90
12885;DHT22;6510;51.362;7.370;2023-12-07T07:43:13;0.90;99.90
12885;DHT22;6510;51.362;7.370;2023-12-07T07:45:38;0.90;99.90
12885;DHT22;6510;51.362;7.370;2023-12-07T07:48:04;0.80;99.90
12885;DHT22;6510;51.362;7.370;2023-12-07T07:50:32;0.90;99.90
12885;DHT22;6510;51.362;7.370;2023-12-07T07:53:00;1.00;99.90
12885;DHT22;6510;51.362;7.370;2023-12-07T07:55:27;1.10;99.90
12885;DHT22;6510;51.362;7.370;2023-12-07T07:57:52;1.10;99.90
12885;DHT22;6510;51.362;7.370;2023-12-07T08:00:21;1.10;99.90
12885;DHT22;6510;51.362;7.370;2023-12-07T08:02:47;1.10;99.90
12885;DHT22;6510;51.362;7.370;2023-12-07T08:05:13;1.10;99.90
12885;DHT22;6510;51.362;7.370;2023-12-07T08:07:41;1.10;99.90
12885;DHT22;6510;51.362;7.370;2023-12-07T08:10:07;1.10;99.90
12885;DHT22;6510;51.362;7.370;2023-12-07T08:12:39;1.10;99.90
12885;DHT22;6510;51.362;7.370;2023-12-07T08:15:14;1.10;99.90
12885;DHT22;6510;51.362;7.370;2023-12-07T08:17:42;1.20;99.90
12885;DHT22;6510;51.362;7.370;2023-12-07T08:20:11;1.20;99.90
12885;DHT22;6510;51.362;7.370;2023-12-07T08:22:41;1.20;99.90
12885;DHT22;6510;51.362;7.370;2023-12-07T08:25:07;1.30;99.90
12885;DHT22;6510;51.362;7.370;2023-12-07T08:27:36;1.40;99.90
12885;DHT22;6510;51.362;7.370;2023-12-07T08:30:02;1.30;99.90
12885;DHT22;6510;51.362;7.370;2023-12-07T08:32:28;1.30;99.90
12885;DHT22;6510;51.362;7.370;2023-12-07T08:34:54;1.40;99.90
12885;DHT22;6510;51.362;7.370;2023-12-07T08:37:25;1.30;99.90
12885;DHT22;6510;51.362;7.370;2023-12-07T08:39:54;1.50;99.90
12885;DHT22;6510;51.362;7.370;2023-12-07T08:42:22;1.70;99.90
12885;DHT22;6510;51.362;7.370;2023-12-07T08:44:48;1.90;99.90
12885;DHT22;6510;51.362;7.370;2023-12-07T08:47:16;2.00;99.90
12885;DHT22;6510;51.362;7.370;2023-12-07T08:49:42;2.40;99.90
12885;DHT22;6510;51.362;7.370;2023-12-07T08:52:07;2.50;99.90
12885;DHT22;6510;51.362;7.370;2023-12-07T08:54:33;2.20;99.90
12885;DHT22;6510;51.362;7.370;2023-12-07T08:57:03;2.10;99.90
12885;DHT22;6510;51.362;7.370;2023-12-07T08:59:35;2.10;99.90
12885;DHT22;6510;51.362;7.370;2023-12-07T09:02:01;2.40;99.90
12885;DHT22;6510;51.362;7.370;2023-12-07T09:04:27;2.80;99.90
12885;DHT22;6510;51.362;7.370;2023-12-07T09:06:53;3.40;99.90
12885;DHT22;6510;51.362;7.370;2023-12-07T09:09:21;3.70;99.90
12885;DHT22;6510;51.362;7.370;2023-12-07T09:11:47;4.00;99.90
12885;DHT22;6510;51.362;7.370;2023-12-07T09:14:13;3.90;99.90
12885;DHT22;6510;51.362;7.370;2023-12-07T09:16:48;3.50;99.90
12885;DHT22;6510;51.362;7.370;2023-12-07T09:19:13;3.60;99.90
12885;DHT22;6510;51.362;7.370;2023-12-07T09:21:42;4.10;99.90
12885;DHT22;6510;51.362;7.370;2023-12-07T09:24:08;4.30;99.90
12885;DHT22;6510;51.362;7.370;2023-12-07T09:26:34;4.90;99.90
12885;DHT22;6510;51.362;7.370;2023-12-07T09:29:00;5.80;99.90
12885;DHT22;6510;51.362;7.370;2023-12-07T09:31:26;6.90;99.90
12885;DHT22;6510;51.362;7.370;2023-12-07T09:34:00;7.50;99.90
12885;DHT22;6510;51.362;7.370;2023-12-07T09:36:33;7.60;99.90
12885;DHT22;6510;51.362;7.370;2023-12-07T09:39:01;6.80;99.90
12885;DHT22;6510;51.362;7.370;2023-12-07T09:41:30;6.10;99.90
12885;DHT22;6510;51.362;7.370;2023-12-07T09:43:56;6.00;99.90
12885;DHT22;6510;51.362;7.370;2023-12-07T09:46:22;5.40;99.90
12885;DHT22;6510;51.362;7.370;2023-12-07T09:48:49;5.20;99.90
12885;DHT22;6510;51.362;7.370;2023-12-07T09:51:15;5.50;99.90
12885;DHT22;6510;51.362;7.370;2023-12-07T09:53:50;6.20;99.90
12885;DHT22;6510;51.362;7.370;2023-12-07T09:56:18;6.50;99.90
12885;DHT22;6510;51.362;7.370;2023-12-07T09:58:44;7.50;99.90
12885;DHT22;6510;51.362;7.370;2023-12-07T10:01:09;8.40;99.90
12885;DHT22;6510;51.362;7.370;2023-12-07T10:03:46;8.30;99.90
12885;DHT22;6510;51.362;7.370;2023-12-07T10:06:13;9.10;99.90
12885;DHT22;6510;51.362;7.370;2023-12-07T10:08:39;8.90;99.90
12885;DHT22;6510;51.362;7.370;2023-12-07T10:11:12;8.50;99.90
12885;DHT22;6510;51.362;7.370;2023-12-07T10:13:39;8.70;99.90
12885;DHT22;6510;51.362;7.370;2023-12-07T10:16:28;8.30;99.90
12885;DHT22;6510;51.362;7.370;2023-12-07T10:18:56;8.60;99.90
12885;DHT22;6510;51.362;7.370;2023-12-07T10:21:32;9.70;99.90
12885;DHT22;6510;51.362;7.370;2023-12-07T10:23:58;10.60;99.90
12885;DHT22;6510;51.362;7.370;2023-12-07T10:26:24;11.90;99.90
12885;DHT22;6510;51.362;7.370;2023-12-07T10:28:50;12.00;99.90
12885;DHT22;6510;51.362;7.370;2023-12-07T10:31:18;12.60;99.90
12885;DHT22;6510;51.362;7.370;2023-12-07T10:33:48;14.00;99.90
12885;DHT22;6510;51.362;7.370;2023-12-07T10:36:14;14.60;90.90
12885;DHT22;6510;51.362;7.370;2023-12-07T10:38:39;13.70;86.60
12885;DHT22;6510;51.362;7.370;2023-12-07T10:41:09;13.80;84.90
12885;DHT22;6510;51.362;7.370;2023-12-07T10:43:42;14.30;76.90
12885;DHT22;6510;51.362;7.370;2023-12-07T10:46:09;14.70;72.40
12885;DHT22;6510;51.362;7.370;2023-12-07T10:48:36;15.60;70.70
12885;DHT22;6510;51.362;7.370;2023-12-07T10:51:06;14.80;66.50
12885;DHT22;6510;51.362;7.370;2023-12-07T10:53:38;14.30;66.00
12885;DHT22;6510;51.362;7.370;2023-12-07T10:56:11;12.40;73.10
12885;DHT22;6510;51.362;7.370;2023-12-07T10:58:40;14.10;72.10
12885;DHT22;6510;51.362;7.370;2023-12-07T11:01:07;14.20;66.40
12885;DHT22;6510;51.362;7.370;2023-12-07T11:03:35;13.00;66.10
12885;DHT22;6510;51.362;7.370;2023-12-07T11:06:02;12.20;74.00
12885;DHT22;6510;51.362;7.370;2023-12-07T11:08:44;12.30;75.80
12885;DHT22;6510;51.362;7.370;2023-12-07T11:11:34;12.20;76.00
12885;DHT22;6510;51.362;7.370;2023-12-07T11:14:09;13.00;77.10
12885;DHT22;6510;51.362;7.370;2023-12-07T11:16:42;12.80;75.10
12885;DHT22;6510;51.362;7.370;2023-12-07T11:19:43;13.50;72.00
12885;DHT22;6510;51.362;7.370;2023-12-07T11:22:13;14.20;66.40
12885;DHT22;6510;51.362;7.370;2023-12-07T11:24:59;13.40;69.60
12885;DHT22;6510;51.362;7.370;2023-12-07T11:27:29;10.80;81.50
12885;DHT22;6510;51.362;7.370;2023-12-07T11:29:58;10.00;87.10
12885;DHT22;6510;51.362;7.370;2023-12-07T11:32:26;10.30;88.70
12885;DHT22;6510;51.362;7.370;2023-12-07T11:34:53;10.90;88.60
12885;DHT22;6510;51.362;7.370;2023-12-07T11:37:19;11.60;83.50
12885;DHT22;6510;51.362;7.370;2023-12-07T11:39:45;12.10;77.00
12885;DHT22;6510;51.362;7.370;2023-12-07T11:42:12;12.40;76.30
12885;DHT22;6510;51.362;7.370;2023-12-07T11:44:41;14.00;69.60
12885;DHT22;6510;51.362;7.370;2023-12-07T11:47:08;13.80;66.00
12885;DHT22;6510;51.362;7.370;2023-12-07T11:49:34;13.60;66.40
12885;DHT22;6510;51.362;7.370;2023-12-07T11:52:01;13.10;68.20
12885;DHT22;6510;51.362;7.370;2023-12-07T11:54:37;12.40;68.00
12885;DHT22;6510;51.362;7.370;2023-12-07T11:57:03;11.20;76.20
12885;DHT22;6510;51.362;7.370;2023-12-07T11:59:30;10.60;80.10
12885;DHT22;6510;51.362;7.370;2023-12-07T12:01:59;9.50;85.30
12885;DHT22;6510;51.362;7.370;2023-12-07T12:04:25;7.40;93.30
12885;DHT22;6510;51.362;7.370;2023-12-07T12:06:50;6.40;99.60
12885;DHT22;6510;51.362;7.370;2023-12-07T12:09:16;5.50;99.90
12885;DHT22;6510;51.362;7.370;2023-12-07T12:11:45;4.90;99.90
12885;DHT22;6510;51.362;7.370;2023-12-07T12:14:17;4.70;99.90
12885;DHT22;6510;51.362;7.370;2023-12-07T12:16:45;6.40;99.90
12885;DHT22;6510;51.362;7.370;2023-12-07T12:19:11;9.20;99.90
12885;DHT22;6510;51.362;7.370;2023-12-07T12:21:37;10.30;97.90
12885;DHT22;6510;51.362;7.370;2023-12-07T12:24:06;11.50;93.00
12885;DHT22;6510;51.362;7.370;2023-12-07T12:26:36;12.90;84.10
12885;DHT22;6510;51.362;7.370;2023-12-07T12:29:05;13.10;76.60
12885;DHT22;6510;51.362;7.370;2023-12-07T12:31:32;12.90;75.00
12885;DHT22;6510;51.362;7.370;2023-12-07T12:34:01;14.00;68.80
12885;DHT22;6510;51.362;7.370;2023-12-07T12:36:27;14.10;66.50
12885;DHT22;6510;51.362;7.370;2023-12-07T12:38:54;13.90;63.70
12885;DHT22;6510;51.362;7.370;2023-12-07T12:41:22;13.90;64.30
12885;DHT22;6510;51.362;7.370;2023-12-07T12:50:35;10.30;80.10
12885;DHT22;6510;51.362;7.370;2023-12-07T12:53:05;9.30;90.40
12885;DHT22;6510;51.362;7.370;2023-12-07T12:55:39;8.80;91.00
12885;DHT22;6510;51.362;7.370;2023-12-07T12:58:09;8.50;93.10
12885;DHT22;6510;51.362;7.370;2023-12-07T13:00:38;7.60;95.30
12885;DHT22;6510;51.362;7.370;2023-12-07T13:03:05;6.90;98.80
12885;DHT22;6510;51.362;7.370;2023-12-07T13:05:31;6.80;99.90
12885;DHT22;6510;51.362;7.370;2023-12-07T13:07:58;7.50;99.20
12885;DHT22;6510;51.362;7.370;2023-12-07T13:10:25;9.20;95.10
12885;DHT22;6510;51.362;7.370;2023-12-07T13:12:51;9.40;93.10
12885;DHT22;6510;51.362;7.370;2023-12-07T13:15:16;8.40;95.20
12885;DHT22;6510;51.362;7.370;2023-12-07T13:17:42;9.10;94.30
12885;DHT22;6510;51.362;7.370;2023-12-07T13:20:08;8.40;95.00
12885;DHT22;6510;51.362;7.370;2023-12-07T13:22:42;8.30;95.40
12885;DHT22;6510;51.362;7.370;2023-12-07T13:25:11;8.50;94.80
12885;DHT22;6510;51.362;7.370;2023-12-07T13:27:40;9.00;94.60
12885;DHT22;6510;51.362;7.370;2023-12-07T13:30:06;8.80;95.40
12885;DHT22;6510;51.362;7.370;2023-12-07T13:32:33;9.20;93.00
12885;DHT22;6510;51.362;7.370;2023-12-07T13:34:59;8.80;93.90
12885;DHT22;6510;51.362;7.370;2023-12-07T13:37:24;8.50;94.70
12885;DHT22;6510;51.362;7.370;2023-12-07T13:39:50;8.30;94.80
12885;DHT22;6510;51.362;7.370;2023-12-07T13:42:21;8.60;95.20
12885;DHT22;6510;51.362;7.370;2023-12-07T13:44:47;8.30;96.20
12885;DHT22;6510;51.362;7.370;2023-12-07T13:47:16;7.70;96.20
12885;DHT22;6510;51.362;7.370;2023-12-07T13:49:42;6.60;99.30
12885;DHT22;6510;51.362;7.370;2023-12-07T13:52:08;6.20;99.90
12885;DHT22;6510;51.362;7.370;2023-12-07T13:54:35;6.60;99.90
12885;DHT22;6510;51.362;7.370;2023-12-07T13:57:01;7.30;99.90
12885;DHT22;6510;51.362;7.370;2023-12-07T13:59:28;7.10;99.90
12885;DHT22;6510;51.362;7.370;2023-12-07T14:01:54;7.40;99.50
12885;DHT22;6510;51.362;7.370;2023-12-07T14:04:21;6.90;99.90
12885;DHT22;6510;51.362;7.370;2023-12-07T14:06:46;5.60;99.90
12885;DHT22;6510;51.362;7.370;2023-12-07T14:09:12;4.80;99.90
12885;DHT22;6510;51.362;7.370;2023-12-07T14:11:37;4.30;99.90
12885;DHT22;6510;51.362;7.370;2023-12-07T14:14:05;4.30;99.90
12885;DHT22;6510;51.362;7.370;2023-12-07T14:16:30;5.00;99.90
12885;DHT22;6510;51.362;7.370;2023-12-07T14:18:56;5.30;99.90
12885;DHT22;6510;51.362;7.370;2023-12-07T14:21:22;5.20;99.90
12885;DHT22;6510;51.362;7.370;2023-12-07T14:23:48;5.50;99.90
12885;DHT22;6510;51.362;7.370;2023-12-07T14:26:14;5.70;99.90
12885;DHT22;6510;51.362;7.370;2023-12-07T14:28:39;5.50;99.90
12885;DHT22;6510;51.362;7.370;2023-12-07T14:31:05;4.80;99.90
12885;DHT22;6510;51.362;7.370;2023-12-07T14:33:33;4.20;99.90
12885;DHT22;6510;51.362;7.370;2023-12-07T14:35:58;3.60;99.90
12885;DHT22;6510;51.362;7.370;2023-12-07T14:38:24;3.30;99.90
12885;DHT22;6510;51.362;7.370;2023-12-07T14:40:49;3.10;99.90
12885;DHT22;6510;51.362;7.370;2023-12-07T14:43:15;3.00;99.90
12885;DHT22;6510;51.362;7.370;2023-12-07T14:45:41;2.80;99.90
12885;DHT22;6510;51.362;7.370;2023-12-07T14:48:09;2.70;99.90
12885;DHT22;6510;51.362;7.370;2023-12-07T14:50:34;2.60;99.90
12885;DHT22;6510;51.362;7.370;2023-12-07T14:53:00;2.60;99.90
12885;DHT22;6510;51.362;7.370;2023-12-07T14:55:26;2.50;99.90
12885;DHT22;6510;51.362;7.370;2023-12-07T14:57:52;2.50;99.90
12885;DHT22;6510;51.362;7.370;2023-12-07T15:00:17;2.40;99.90
12885;DHT22;6510;51.362;7.370;2023-12-07T15:02:43;2.30;99.90
12885;DHT22;6510;51.362;7.370;2023-12-07T15:05:09;2.20;99.90
12885;DHT22;6510;51.362;7.370;2023-12-07T15:07:34;2.10;99.90
12885;DHT22;6510;51.362;7.370;2023-12-07T15:10:00;2.10;99.90
12885;DHT22;6510;51.362;7.370;2023-12-07T15:12:26;2.20;99.90
12885;DHT22;6510;51.362;7.370;2023-12-07T15:14:51;2.20;99.90
12885;DHT22;6510;51.362;7.370;2023-12-07T15:17:17;2.10;99.90
12885;DHT22;6510;51.362;7.370;2023-12-07T15:19:43;2.00;99.90
12885;DHT22;6510;51.362;7.370;2023-12-07T15:22:09;1.90;99.90
12885;DHT22;6510;51.362;7.370;2023-12-07T15:24:35;2.00;99.90
12885;DHT22;6510;51.362;7.370;2023-12-07T15:27:01;2.00;99.90
12885;DHT22;6510;51.362;7.370;2023-12-07T15:29:26;1.90;99.90
12885;DHT22;6510;51.362;7.370;2023-12-07T15:31:52;1.90;99.90
12885;DHT22;6510;51.362;7.370;2023-12-07T15:34:17;1.80;99.90
12885;DHT22;6510;51.362;7.370;2023-12-07T15:36:43;1.70;99.90
12885;DHT22;6510;51.362;7.370;2023-12-07T15:39:08;1.80;99.90
12885;DHT22;6510;51.362;7.370;2023-12-07T15:41:37;1.80;99.90
12885;DHT22;6510;51.362;7.370;2023-12-07T15:44:02;1.90;99.90
12885;DHT22;6510;51.362;7.370;2023-12-07T15:46:28;1.80;99.90
12885;DHT22;6510;51.362;7.370;2023-12-07T15:48:53;1.90;99.90
12885;DHT22;6510;51.362;7.370;2023-12-07T15:51:19;1.80;99.90
12885;DHT22;6510;51.362;7.370;2023-12-07T15:53:45;1.60;99.90
12885;DHT22;6510;51.362;7.370;2023-12-07T15:56:11;1.50;99.90
12885;DHT22;6510;51.362;7.370;2023-12-07T15:58:37;1.50;99.90
12885;DHT22;6510;51.362;7.370;2023-12-07T16:01:02;1.50;99.90
12885;DHT22;6510;51.362;7.370;2023-12-07T16:03:28;1.50;99.90
12885;DHT22;6510;51.362;7.370;2023-12-07T16:05:54;1.50;99.90
12885;DHT22;6510;51.362;7.370;2023-12-07T16:08:19;1.50;99.90